sensor_id;sensor_type;location;lat;lon;timestamp;P1;durP1;ratioP1;P2;durP2;ratioP2
13595;SDS011;6868;52.544;13.416;2022-12-18T00:02:08;142.55;;;47.40;;
13595;SDS011;6868;52.544;13.416;2022-12-18T00:04:40;311.80;;;71.38;;
13595;SDS011;6868;52.544;13.416;2022-12-18T00:07:07;319.48;;;72.32;;
13595;SDS011;6868;52.544;13.416;2022-12-18T00:09:35;159.68;;;50.90;;
13595;SDS011;6868;52.544;13.416;2022-12-18T00:12:02;244.23;;;61.88;;
13595;SDS011;6868;52.544;13.416;2022-12-18T00:14:30;211.10;;;57.05;;
13595;SDS011;6868;52.544;13.416;2022-12-18T00:16:57;315.87;;;73.00;;
13595;SDS011;6868;52.544;13.416;2022-12-18T00:19:25;267.08;;;65.22;;
13595;SDS011;6868;52.544;13.416;2022-12-18T00:21:54;234.77;;;65.90;;
13595;SDS011;6868;52.544;13.416;2022-12-18T00:24:23;301.23;;;71.68;;
13595;SDS011;6868;52.544;13.416;2022-12-18T00:26:50;330.98;;;76.80;;
13595;SDS011;6868;52.544;13.416;2022-12-18T00:29:17;289.40;;;71.55;;
13595;SDS011;6868;52.544;13.416;2022-12-18T00:31:44;159.18;;;50.97;;
13595;SDS011;6868;52.544;13.416;2022-12-18T00:34:12;288.45;;;68.93;;
13595;SDS011;6868;52.544;13.416;2022-12-18T00:36:39;306.40;;;70.47;;
13595;SDS011;6868;52.544;13.416;2022-12-18T00:39:08;302.67;;;71.10;;
13595;SDS011;6868;52.544;13.416;2022-12-18T00:41:36;326.08;;;75.82;;
13595;SDS011;6868;52.544;13.416;2022-12-18T00:44:21;320.35;;;75.32;;
13595;SDS011;6868;52.544;13.416;2022-12-18T00:46:48;318.65;;;73.38;;
13595;SDS011;6868;52.544;13.416;2022-12-18T00:49:16;352.45;;;79.20;;
13595;SDS011;6868;52.544;13.416;2022-12-18T00:51:43;347.00;;;79.47;;
13595;SDS011;6868;52.544;13.416;2022-12-18T00:54:12;342.48;;;76.32;;
13595;SDS011;6868;52.544;13.416;2022-12-18T00:56:39;346.67;;;79.07;;
13595;SDS011;6868;52.544;13.416;2022-12-18T00:59:07;282.75;;;70.80;;
13595;SDS011;6868;52.544;13.416;2022-12-18T01:01:34;189.60;;;61.10;;
13595;SDS011;6868;52.544;13.416;2022-12-18T01:04:02;230.35;;;65.75;;
13595;SDS011;6868;52.544;13.416;2022-12-18T01:06:29;244.15;;;63.85;;
13595;SDS011;6868;52.544;13.416;2022-12-18T01:08:57;204.13;;;56.83;;
13595;SDS011;6868;52.544;13.416;2022-12-18T01:11:25;244.32;;;63.90;;
13595;SDS011;6868;52.544;13.416;2022-12-18T01:13:53;154.60;;;50.47;;
13595;SDS011;6868;52.544;13.416;2022-12-18T01:16:20;256.15;;;65.78;;
13595;SDS011;6868;52.544;13.416;2022-12-18T01:18:50;254.68;;;64.22;;
13595;SDS011;6868;52.544;13.416;2022-12-18T01:21:17;154.13;;;50.70;;
13595;SDS011;6868;52.544;13.416;2022-12-18T01:23:45;201.73;;;55.97;;
13595;SDS011;6868;52.544;13.416;2022-12-18T01:26:13;180.98;;;55.13;;
13595;SDS011;6868;52.544;13.416;2022-12-18T01:28:42;175.73;;;54.10;;
13595;SDS011;6868;52.544;13.416;2022-12-18T01:31:14;216.93;;;60.10;;
13595;SDS011;6868;52.544;13.416;2022-12-18T01:33:42;201.82;;;60.03;;
13595;SDS011;6868;52.544;13.416;2022-12-18T01:36:14;253.45;;;64.28;;
13595;SDS011;6868;52.544;13.416;2022-12-18T01:38:44;202.13;;;58.65;;
13595;SDS011;6868;52.544;13.416;2022-12-18T01:41:12;169.48;;;52.75;;
13595;SDS011;6868;52.544;13.416;2022-12-18T01:43:51;169.93;;;54.03;;
13595;SDS011;6868;52.544;13.416;2022-12-18T01:46:20;168.00;;;52.83;;
13595;SDS011;6868;52.544;13.416;2022-12-18T01:48:51;119.30;;;45.17;;
13595;SDS011;6868;52.544;13.416;2022-12-18T01:51:19;232.93;;;60.87;;
13595;SDS011;6868;52.544;13.416;2022-12-18T01:53:46;160.88;;;48.95;;
13595;SDS011;6868;52.544;13.416;2022-12-18T01:56:14;174.27;;;52.63;;
13595;SDS011;6868;52.544;13.416;2022-12-18T01:58:45;123.35;;;45.58;;
13595;SDS011;6868;52.544;13.416;2022-12-18T02:01:14;130.82;;;47.38;;
13595;SDS011;6868;52.544;13.416;2022-12-18T02:03:42;173.35;;;52.95;;
13595;SDS011;6868;52.544;13.416;2022-12-18T02:06:11;174.93;;;52.92;;
13595;SDS011;6868;52.544;13.416;2022-12-18T02:08:41;148.63;;;49.95;;
13595;SDS011;6868;52.544;13.416;2022-12-18T02:11:10;198.85;;;55.50;;
13595;SDS011;6868;52.544;13.416;2022-12-18T02:13:41;198.07;;;55.65;;
13595;SDS011;6868;52.544;13.416;2022-12-18T02:16:10;203.17;;;56.97;;
13595;SDS011;6868;52.544;13.416;2022-12-18T02:18:47;207.50;;;57.83;;
13595;SDS011;6868;52.544;13.416;2022-12-18T02:21:19;138.18;;;49.70;;
13595;SDS011;6868;52.544;13.416;2022-12-18T02:23:51;198.07;;;55.30;;
13595;SDS011;6868;52.544;13.416;2022-12-18T02:26:22;166.05;;;52.63;;
13595;SDS011;6868;52.544;13.416;2022-12-18T02:28:54;151.30;;;50.92;;
13595;SDS011;6868;52.544;13.416;2022-12-18T02:31:23;165.93;;;51.72;;
13595;SDS011;6868;52.544;13.416;2022-12-18T02:33:52;152.50;;;49.30;;
13595;SDS011;6868;52.544;13.416;2022-12-18T02:36:23;147.35;;;49.60;;
13595;SDS011;6868;52.544;13.416;2022-12-18T02:38:51;152.90;;;49.93;;
13595;SDS011;6868;52.544;13.416;2022-12-18T02:41:19;152.38;;;49.10;;
13595;SDS011;6868;52.544;13.416;2022-12-18T02:43:53;137.75;;;47.72;;
13595;SDS011;6868;52.544;13.416;2022-12-18T02:46:24;150.88;;;49.72;;
13595;SDS011;6868;52.544;13.416;2022-12-18T02:48:52;150.25;;;49.20;;
13595;SDS011;6868;52.544;13.416;2022-12-18T02:51:23;152.40;;;50.67;;
13595;SDS011;6868;52.544;13.416;2022-12-18T02:53:53;94.20;;;37.58;;
13595;SDS011;6868;52.544;13.416;2022-12-18T02:56:24;136.63;;;47.47;;
13595;SDS011;6868;52.544;13.416;2022-12-18T02:58:55;139.35;;;47.97;;
13595;SDS011;6868;52.544;13.416;2022-12-18T03:01:26;132.80;;;46.60;;
13595;SDS011;6868;52.544;13.416;2022-12-18T03:03:55;121.93;;;43.97;;
13595;SDS011;6868;52.544;13.416;2022-12-18T03:06:23;121.82;;;44.80;;
13595;SDS011;6868;52.544;13.416;2022-12-18T03:08:54;112.57;;;42.33;;
13595;SDS011;6868;52.544;13.416;2022-12-18T03:11:23;104.72;;;40.10;;
13595;SDS011;6868;52.544;13.416;2022-12-18T03:14:07;128.77;;;45.60;;
13595;SDS011;6868;52.544;13.416;2022-12-18T03:16:34;122.13;;;44.42;;
13595;SDS011;6868;52.544;13.416;2022-12-18T03:19:04;121.65;;;43.40;;
13595;SDS011;6868;52.544;13.416;2022-12-18T03:21:34;105.25;;;39.28;;
13595;SDS011;6868;52.544;13.416;2022-12-18T03:24:04;105.60;;;39.90;;
13595;SDS011;6868;52.544;13.416;2022-12-18T03:26:33;104.88;;;39.55;;
13595;SDS011;6868;52.544;13.416;2022-12-18T03:29:02;112.10;;;40.92;;
13595;SDS011;6868;52.544;13.416;2022-12-18T03:31:32;126.55;;;44.47;;
13595;SDS011;6868;52.544;13.416;2022-12-18T03:34:03;121.35;;;43.17;;
13595;SDS011;6868;52.544;13.416;2022-12-18T03:36:31;132.15;;;45.13;;
13595;SDS011;6868;52.544;13.416;2022-12-18T03:38:58;211.43;;;56.75;;
13595;SDS011;6868;52.544;13.416;2022-12-18T03:41:28;218.30;;;59.17;;
13595;SDS011;6868;52.544;13.416;2022-12-18T03:43:57;182.98;;;53.03;;
13595;SDS011;6868;52.544;13.416;2022-12-18T03:46:27;214.25;;;58.30;;
13595;SDS011;6868;52.544;13.416;2022-12-18T03:48:59;180.68;;;52.38;;
13595;SDS011;6868;52.544;13.416;2022-12-18T03:51:28;135.30;;;45.77;;
13595;SDS011;6868;52.544;13.416;2022-12-18T03:53:58;144.07;;;47.88;;
13595;SDS011;6868;52.544;13.416;2022-12-18T03:56:28;140.23;;;46.90;;
13595;SDS011;6868;52.544;13.416;2022-12-18T03:58:55;137.80;;;46.22;;
13595;SDS011;6868;52.544;13.416;2022-12-18T04:01:26;128.05;;;44.67;;
13595;SDS011;6868;52.544;13.416;2022-12-18T04:03:55;138.00;;;46.45;;
13595;SDS011;6868;52.544;13.416;2022-12-18T04:06:25;111.18;;;40.92;;
13595;SDS011;6868;52.544;13.416;2022-12-18T04:08:52;105.32;;;39.42;;
13595;SDS011;6868;52.544;13.416;2022-12-18T04:11:20;134.93;;;45.38;;
13595;SDS011;6868;52.544;13.416;2022-12-18T04:13:47;110.63;;;40.63;;
13595;SDS011;6868;52.544;13.416;2022-12-18T04:16:14;184.88;;;55.15;;
13595;SDS011;6868;52.544;13.416;2022-12-18T04:18:42;161.18;;;50.90;;
13595;SDS011;6868;52.544;13.416;2022-12-18T04:21:09;162.38;;;51.08;;
13595;SDS011;6868;52.544;13.416;2022-12-18T04:23:38;135.90;;;46.10;;
13595;SDS011;6868;52.544;13.416;2022-12-18T04:26:05;147.45;;;49.03;;
13595;SDS011;6868;52.544;13.416;2022-12-18T04:28:32;144.57;;;47.65;;
13595;SDS011;6868;52.544;13.416;2022-12-18T04:30:59;139.50;;;46.47;;
13595;SDS011;6868;52.544;13.416;2022-12-18T04:33:27;130.25;;;45.17;;
13595;SDS011;6868;52.544;13.416;2022-12-18T04:35:54;146.47;;;47.47;;
13595;SDS011;6868;52.544;13.416;2022-12-18T04:38:21;153.07;;;49.90;;
13595;SDS011;6868;52.544;13.416;2022-12-18T04:40:50;111.77;;;41.03;;
13595;SDS011;6868;52.544;13.416;2022-12-18T04:43:17;112.47;;;41.17;;
13595;SDS011;6868;52.544;13.416;2022-12-18T04:45:45;109.53;;;40.88;;
13595;SDS011;6868;52.544;13.416;2022-12-18T04:48:12;154.55;;;48.78;;
13595;SDS011;6868;52.544;13.416;2022-12-18T04:50:39;156.55;;;49.25;;
13595;SDS011;6868;52.544;13.416;2022-12-18T04:53:06;137.02;;;45.72;;
13595;SDS011;6868;52.544;13.416;2022-12-18T04:55:33;136.53;;;46.57;;
13595;SDS011;6868;52.544;13.416;2022-12-18T04:58:02;138.98;;;47.10;;
13595;SDS011;6868;52.544;13.416;2022-12-18T05:00:29;142.27;;;47.65;;
13595;SDS011;6868;52.544;13.416;2022-12-18T05:02:56;117.45;;;42.05;;
13595;SDS011;6868;52.544;13.416;2022-12-18T05:05:23;145.47;;;50.37;;
13595;SDS011;6868;52.544;13.416;2022-12-18T05:07:51;140.60;;;46.70;;
13595;SDS011;6868;52.544;13.416;2022-12-18T05:10:18;138.20;;;46.38;;
13595;SDS011;6868;52.544;13.416;2022-12-18T05:12:45;138.43;;;46.90;;
13595;SDS011;6868;52.544;13.416;2022-12-18T05:15:28;149.70;;;51.88;;
13595;SDS011;6868;52.544;13.416;2022-12-18T05:17:56;137.00;;;46.95;;
13595;SDS011;6868;52.544;13.416;2022-12-18T05:20:23;135.80;;;47.00;;
13595;SDS011;6868;52.544;13.416;2022-12-18T05:22:50;123.43;;;43.58;;
13595;SDS011;6868;52.544;13.416;2022-12-18T05:25:18;122.83;;;45.43;;
13595;SDS011;6868;52.544;13.416;2022-12-18T05:27:45;138.00;;;47.10;;
13595;SDS011;6868;52.544;13.416;2022-12-18T05:30:13;141.05;;;47.42;;
13595;SDS011;6868;52.544;13.416;2022-12-18T05:32:42;138.23;;;47.25;;
13595;SDS011;6868;52.544;13.416;2022-12-18T05:35:10;149.18;;;50.80;;
13595;SDS011;6868;52.544;13.416;2022-12-18T05:37:38;131.73;;;45.95;;
13595;SDS011;6868;52.544;13.416;2022-12-18T05:40:05;124.15;;;44.35;;
13595;SDS011;6868;52.544;13.416;2022-12-18T05:42:33;130.57;;;45.95;;
13595;SDS011;6868;52.544;13.416;2022-12-18T05:45:00;116.85;;;43.75;;
13595;SDS011;6868;52.544;13.416;2022-12-18T05:47:28;126.55;;;45.15;;
13595;SDS011;6868;52.544;13.416;2022-12-18T05:49:56;111.73;;;41.63;;
13595;SDS011;6868;52.544;13.416;2022-12-18T05:52:24;114.57;;;42.13;;
13595;SDS011;6868;52.544;13.416;2022-12-18T05:54:51;122.60;;;43.28;;
13595;SDS011;6868;52.544;13.416;2022-12-18T05:57:18;105.57;;;39.75;;
13595;SDS011;6868;52.544;13.416;2022-12-18T05:59:45;104.03;;;39.92;;
13595;SDS011;6868;52.544;13.416;2022-12-18T06:02:13;113.72;;;42.00;;
13595;SDS011;6868;52.544;13.416;2022-12-18T06:04:40;113.30;;;41.65;;
13595;SDS011;6868;52.544;13.416;2022-12-18T06:07:09;100.13;;;38.57;;
13595;SDS011;6868;52.544;13.416;2022-12-18T06:09:36;102.18;;;39.53;;
13595;SDS011;6868;52.544;13.416;2022-12-18T06:12:03;102.68;;;38.42;;
13595;SDS011;6868;52.544;13.416;2022-12-18T06:14:31;124.83;;;43.80;;
13595;SDS011;6868;52.544;13.416;2022-12-18T06:16:58;110.05;;;41.50;;
13595;SDS011;6868;52.544;13.416;2022-12-18T06:19:25;98.00;;;37.50;;
13595;SDS011;6868;52.544;13.416;2022-12-18T06:21:52;105.15;;;39.90;;
13595;SDS011;6868;52.544;13.416;2022-12-18T06:24:21;132.73;;;45.25;;
13595;SDS011;6868;52.544;13.416;2022-12-18T06:26:48;131.93;;;45.40;;
13595;SDS011;6868;52.544;13.416;2022-12-18T06:29:16;109.03;;;40.42;;
13595;SDS011;6868;52.544;13.416;2022-12-18T06:31:43;98.85;;;37.92;;
13595;SDS011;6868;52.544;13.416;2022-12-18T06:34:10;108.25;;;39.88;;
13595;SDS011;6868;52.544;13.416;2022-12-18T06:36:37;131.85;;;45.83;;
13595;SDS011;6868;52.544;13.416;2022-12-18T06:39:04;90.47;;;36.40;;
13595;SDS011;6868;52.544;13.416;2022-12-18T06:41:33;102.10;;;39.00;;
13595;SDS011;6868;52.544;13.416;2022-12-18T06:44:00;99.05;;;37.78;;
13595;SDS011;6868;52.544;13.416;2022-12-18T06:46:28;92.97;;;35.95;;
13595;SDS011;6868;52.544;13.416;2022-12-18T06:48:55;92.28;;;36.88;;
13595;SDS011;6868;52.544;13.416;2022-12-18T06:51:23;97.95;;;38.03;;
13595;SDS011;6868;52.544;13.416;2022-12-18T06:53:50;87.55;;;35.28;;
13595;SDS011;6868;52.544;13.416;2022-12-18T06:56:18;109.50;;;40.75;;
13595;SDS011;6868;52.544;13.416;2022-12-18T06:58:46;115.07;;;42.78;;
13595;SDS011;6868;52.544;13.416;2022-12-18T07:01:16;115.38;;;42.55;;
13595;SDS011;6868;52.544;13.416;2022-12-18T07:03:44;93.05;;;36.33;;
13595;SDS011;6868;52.544;13.416;2022-12-18T07:06:15;116.68;;;42.45;;
13595;SDS011;6868;52.544;13.416;2022-12-18T07:08:42;128.02;;;45.13;;
13595;SDS011;6868;52.544;13.416;2022-12-18T07:11:09;127.72;;;44.63;;
13595;SDS011;6868;52.544;13.416;2022-12-18T07:13:37;124.80;;;43.50;;
13595;SDS011;6868;52.544;13.416;2022-12-18T07:16:07;124.50;;;44.83;;
13595;SDS011;6868;52.544;13.416;2022-12-18T07:18:35;120.95;;;43.78;;
13595;SDS011;6868;52.544;13.416;2022-12-18T07:21:03;93.57;;;36.70;;
13595;SDS011;6868;52.544;13.416;2022-12-18T07:23:31;92.60;;;35.65;;
13595;SDS011;6868;52.544;13.416;2022-12-18T07:26:00;99.97;;;37.50;;
13595;SDS011;6868;52.544;13.416;2022-12-18T07:28:27;101.88;;;38.90;;
13595;SDS011;6868;52.544;13.416;2022-12-18T07:30:55;112.97;;;42.00;;
13595;SDS011;6868;52.544;13.416;2022-12-18T07:33:23;112.18;;;41.10;;
13595;SDS011;6868;52.544;13.416;2022-12-18T07:35:50;93.03;;;37.27;;
13595;SDS011;6868;52.544;13.416;2022-12-18T07:38:18;93.13;;;36.97;;
13595;SDS011;6868;52.544;13.416;2022-12-18T07:40:45;93.50;;;36.60;;
13595;SDS011;6868;52.544;13.416;2022-12-18T07:43:12;95.38;;;36.60;;
13595;SDS011;6868;52.544;13.416;2022-12-18T07:45:39;98.15;;;38.25;;
13595;SDS011;6868;52.544;13.416;2022-12-18T07:48:07;106.57;;;40.15;;
13595;SDS011;6868;52.544;13.416;2022-12-18T07:50:35;108.88;;;40.92;;
13595;SDS011;6868;52.544;13.416;2022-12-18T07:53:03;106.72;;;39.67;;
13595;SDS011;6868;52.544;13.416;2022-12-18T07:55:30;116.53;;;42.13;;
13595;SDS011;6868;52.544;13.416;2022-12-18T07:58:00;98.40;;;37.05;;
13595;SDS011;6868;52.544;13.416;2022-12-18T08:00:28;102.35;;;38.17;;
13595;SDS011;6868;52.544;13.416;2022-12-18T08:02:55;103.00;;;38.15;;
13595;SDS011;6868;52.544;13.416;2022-12-18T08:05:22;102.85;;;39.60;;
13595;SDS011;6868;52.544;13.416;2022-12-18T08:07:51;92.72;;;35.53;;
13595;SDS011;6868;52.544;13.416;2022-12-18T08:10:19;102.43;;;38.10;;
13595;SDS011;6868;52.544;13.416;2022-12-18T08:12:48;98.93;;;37.40;;
13595;SDS011;6868;52.544;13.416;2022-12-18T08:15:15;100.40;;;39.42;;
13595;SDS011;6868;52.544;13.416;2022-12-18T08:17:43;103.38;;;38.50;;
13595;SDS011;6868;52.544;13.416;2022-12-18T08:20:10;96.20;;;36.50;;
13595;SDS011;6868;52.544;13.416;2022-12-18T08:22:39;103.45;;;38.83;;
13595;SDS011;6868;52.544;13.416;2022-12-18T08:25:08;117.05;;;44.75;;
13595;SDS011;6868;52.544;13.416;2022-12-18T08:27:35;117.45;;;41.92;;
13595;SDS011;6868;52.544;13.416;2022-12-18T08:30:03;140.63;;;48.50;;
13595;SDS011;6868;52.544;13.416;2022-12-18T08:32:30;100.90;;;38.50;;
13595;SDS011;6868;52.544;13.416;2022-12-18T08:34:59;135.90;;;45.65;;
13595;SDS011;6868;52.544;13.416;2022-12-18T08:37:26;138.82;;;46.30;;
13595;SDS011;6868;52.544;13.416;2022-12-18T08:39:56;116.45;;;42.38;;
13595;SDS011;6868;52.544;13.416;2022-12-18T08:42:25;133.18;;;45.10;;
13595;SDS011;6868;52.544;13.416;2022-12-18T08:45:10;135.25;;;45.85;;
13595;SDS011;6868;52.544;13.416;2022-12-18T08:47:38;131.93;;;44.67;;
13595;SDS011;6868;52.544;13.416;2022-12-18T08:50:05;126.13;;;44.22;;
13595;SDS011;6868;52.544;13.416;2022-12-18T08:52:33;135.33;;;45.70;;
13595;SDS011;6868;52.544;13.416;2022-12-18T08:55:00;128.00;;;44.78;;
13595;SDS011;6868;52.544;13.416;2022-12-18T08:57:30;100.88;;;38.40;;
13595;SDS011;6868;52.544;13.416;2022-12-18T08:59:58;119.60;;;42.80;;
13595;SDS011;6868;52.544;13.416;2022-12-18T09:02:25;106.03;;;39.50;;
13595;SDS011;6868;52.544;13.416;2022-12-18T09:04:53;102.43;;;38.40;;
13595;SDS011;6868;52.544;13.416;2022-12-18T09:07:20;102.90;;;38.35;;
13595;SDS011;6868;52.544;13.416;2022-12-18T09:09:48;106.63;;;39.85;;
13595;SDS011;6868;52.544;13.416;2022-12-18T09:12:15;106.97;;;40.00;;
13595;SDS011;6868;52.544;13.416;2022-12-18T09:14:44;108.07;;;40.72;;
13595;SDS011;6868;52.544;13.416;2022-12-18T09:17:11;118.45;;;42.88;;
13595;SDS011;6868;52.544;13.416;2022-12-18T09:19:38;109.35;;;41.03;;
13595;SDS011;6868;52.544;13.416;2022-12-18T09:22:06;107.72;;;40.75;;
13595;SDS011;6868;52.544;13.416;2022-12-18T09:24:34;112.22;;;41.70;;
13595;SDS011;6868;52.544;13.416;2022-12-18T09:27:02;116.15;;;43.00;;
13595;SDS011;6868;52.544;13.416;2022-12-18T09:29:29;115.00;;;42.40;;
13595;SDS011;6868;52.544;13.416;2022-12-18T09:31:58;116.68;;;43.13;;
13595;SDS011;6868;52.544;13.416;2022-12-18T09:34:26;136.57;;;46.00;;
13595;SDS011;6868;52.544;13.416;2022-12-18T09:36:53;145.73;;;48.05;;
13595;SDS011;6868;52.544;13.416;2022-12-18T09:39:20;141.07;;;47.05;;
13595;SDS011;6868;52.544;13.416;2022-12-18T09:41:50;78.30;;;37.87;;
13595;SDS011;6868;52.544;13.416;2022-12-18T09:44:23;146.52;;;47.92;;
13595;SDS011;6868;52.544;13.416;2022-12-18T09:46:53;127.18;;;44.50;;
13595;SDS011;6868;52.544;13.416;2022-12-18T09:49:24;130.45;;;45.10;;
13595;SDS011;6868;52.544;13.416;2022-12-18T09:51:54;130.07;;;45.05;;
13595;SDS011;6868;52.544;13.416;2022-12-18T09:54:23;118.63;;;42.67;;
13595;SDS011;6868;52.544;13.416;2022-12-18T09:56:52;129.95;;;45.75;;
13595;SDS011;6868;52.544;13.416;2022-12-18T09:59:21;141.37;;;47.17;;
13595;SDS011;6868;52.544;13.416;2022-12-18T10:01:50;139.48;;;47.38;;
13595;SDS011;6868;52.544;13.416;2022-12-18T10:04:18;148.65;;;48.65;;
13595;SDS011;6868;52.544;13.416;2022-12-18T10:06:48;132.00;;;47.17;;
13595;SDS011;6868;52.544;13.416;2022-12-18T10:09:19;86.53;;;39.37;;
13595;SDS011;6868;52.544;13.416;2022-12-18T10:11:48;95.30;;;41.47;;
13595;SDS011;6868;52.544;13.416;2022-12-18T10:14:23;84.72;;;35.95;;
13595;SDS011;6868;52.544;13.416;2022-12-18T10:16:55;100.50;;;41.22;;
13595;SDS011;6868;52.544;13.416;2022-12-18T10:19:33;101.85;;;39.80;;
13595;SDS011;6868;52.544;13.416;2022-12-18T10:22:10;99.05;;;40.33;;
13595;SDS011;6868;52.544;13.416;2022-12-18T10:24:42;92.10;;;37.38;;
13595;SDS011;6868;52.544;13.416;2022-12-18T10:27:15;103.80;;;40.53;;
13595;SDS011;6868;52.544;13.416;2022-12-18T10:29:42;107.00;;;41.28;;
13595;SDS011;6868;52.544;13.416;2022-12-18T10:32:13;79.10;;;38.08;;
13595;SDS011;6868;52.544;13.416;2022-12-18T10:34:44;89.85;;;36.65;;
13595;SDS011;6868;52.544;13.416;2022-12-18T10:37:14;118.68;;;44.47;;
13595;SDS011;6868;52.544;13.416;2022-12-18T10:39:42;133.48;;;46.03;;
13595;SDS011;6868;52.544;13.416;2022-12-18T10:42:11;83.22;;;37.40;;
13595;SDS011;6868;52.544;13.416;2022-12-18T10:44:39;61.97;;;27.67;;
13595;SDS011;6868;52.544;13.416;2022-12-18T10:47:09;148.55;;;49.90;;
13595;SDS011;6868;52.544;13.416;2022-12-18T10:49:38;146.57;;;48.88;;
13595;SDS011;6868;52.544;13.416;2022-12-18T10:52:13;207.02;;;58.65;;
13595;SDS011;6868;52.544;13.416;2022-12-18T10:54:47;136.90;;;47.25;;
13595;SDS011;6868;52.544;13.416;2022-12-18T10:59:49;204.57;;;57.33;;
13595;SDS011;6868;52.544;13.416;2022-12-18T11:02:24;202.80;;;56.40;;
13595;SDS011;6868;52.544;13.416;2022-12-18T11:04:52;204.00;;;58.03;;
13595;SDS011;6868;52.544;13.416;2022-12-18T11:07:19;201.00;;;56.78;;
13595;SDS011;6868;52.544;13.416;2022-12-18T11:09:59;196.77;;;56.13;;
13595;SDS011;6868;52.544;13.416;2022-12-18T11:12:29;215.27;;;58.35;;
13595;SDS011;6868;52.544;13.416;2022-12-18T11:14:57;215.38;;;59.55;;
13595;SDS011;6868;52.544;13.416;2022-12-18T11:17:27;210.45;;;57.58;;
13595;SDS011;6868;52.544;13.416;2022-12-18T11:19:56;213.73;;;59.20;;
13595;SDS011;6868;52.544;13.416;2022-12-18T11:22:25;218.03;;;58.97;;
13595;SDS011;6868;52.544;13.416;2022-12-18T11:24:58;221.35;;;59.53;;
13595;SDS011;6868;52.544;13.416;2022-12-18T11:27:26;225.65;;;59.40;;
13595;SDS011;6868;52.544;13.416;2022-12-18T11:30:06;224.43;;;60.42;;
13595;SDS011;6868;52.544;13.416;2022-12-18T11:32:35;231.45;;;60.67;;
13595;SDS011;6868;52.544;13.416;2022-12-18T11:35:04;138.70;;;50.08;;
13595;SDS011;6868;52.544;13.416;2022-12-18T11:37:38;223.80;;;59.97;;
13595;SDS011;6868;52.544;13.416;2022-12-18T11:40:10;173.05;;;54.35;;
13595;SDS011;6868;52.544;13.416;2022-12-18T11:42:41;201.43;;;57.08;;
13595;SDS011;6868;52.544;13.416;2022-12-18T11:45:23;198.40;;;59.00;;
13595;SDS011;6868;52.544;13.416;2022-12-18T11:47:52;199.18;;;58.25;;
13595;SDS011;6868;52.544;13.416;2022-12-18T11:50:24;101.35;;;40.50;;
13595;SDS011;6868;52.544;13.416;2022-12-18T11:52:52;106.93;;;42.58;;
13595;SDS011;6868;52.544;13.416;2022-12-18T11:55:23;113.72;;;44.13;;
13595;SDS011;6868;52.544;13.416;2022-12-18T11:57:54;112.60;;;43.83;;
13595;SDS011;6868;52.544;13.416;2022-12-18T12:00:24;123.32;;;44.92;;
13595;SDS011;6868;52.544;13.416;2022-12-18T12:03:00;128.50;;;47.05;;
13595;SDS011;6868;52.544;13.416;2022-12-18T12:05:40;60.87;;;27.23;;
13595;SDS011;6868;52.544;13.416;2022-12-18T12:08:12;102.55;;;40.40;;
13595;SDS011;6868;52.544;13.416;2022-12-18T12:10:46;111.13;;;42.83;;
13595;SDS011;6868;52.544;13.416;2022-12-18T12:13:22;107.43;;;42.03;;
13595;SDS011;6868;52.544;13.416;2022-12-18T12:15:54;110.38;;;43.45;;
13595;SDS011;6868;52.544;13.416;2022-12-18T12:18:25;117.47;;;44.08;;
13595;SDS011;6868;52.544;13.416;2022-12-18T12:28:22;135.23;;;47.92;;
13595;SDS011;6868;52.544;13.416;2022-12-18T12:30:54;142.10;;;49.55;;
13595;SDS011;6868;52.544;13.416;2022-12-18T12:33:29;141.87;;;48.37;;
13595;SDS011;6868;52.544;13.416;2022-12-18T12:36:00;155.82;;;51.60;;
13595;SDS011;6868;52.544;13.416;2022-12-18T12:38:31;136.90;;;47.53;;
13595;SDS011;6868;52.544;13.416;2022-12-18T12:41:03;141.95;;;49.90;;
13595;SDS011;6868;52.544;13.416;2022-12-18T12:43:53;138.60;;;48.72;;
13595;SDS011;6868;52.544;13.416;2022-12-18T12:46:21;145.82;;;49.10;;
13595;SDS011;6868;52.544;13.416;2022-12-18T12:53:45;144.43;;;48.88;;
13595;SDS011;6868;52.544;13.416;2022-12-18T12:56:13;119.45;;;45.53;;
13595;SDS011;6868;52.544;13.416;2022-12-18T12:58:44;148.05;;;49.88;;
13595;SDS011;6868;52.544;13.416;2022-12-18T13:01:17;133.43;;;47.40;;
13595;SDS011;6868;52.544;13.416;2022-12-18T13:03:53;133.88;;;47.05;;
13595;SDS011;6868;52.544;13.416;2022-12-18T13:06:25;147.63;;;49.13;;
13595;SDS011;6868;52.544;13.416;2022-12-18T13:08:57;152.70;;;51.42;;
13595;SDS011;6868;52.544;13.416;2022-12-18T13:11:29;153.57;;;51.40;;
13595;SDS011;6868;52.544;13.416;2022-12-18T13:14:23;141.32;;;47.97;;
13595;SDS011;6868;52.544;13.416;2022-12-18T13:16:52;134.52;;;47.03;;
13595;SDS011;6868;52.544;13.416;2022-12-18T13:19:40;141.48;;;48.22;;
13595;SDS011;6868;52.544;13.416;2022-12-18T13:22:19;157.13;;;51.53;;
13595;SDS011;6868;52.544;13.416;2022-12-18T13:24:47;150.55;;;49.92;;
13595;SDS011;6868;52.544;13.416;2022-12-18T13:29:57;152.00;;;50.53;;
13595;SDS011;6868;52.544;13.416;2022-12-18T13:32:26;156.23;;;51.20;;
13595;SDS011;6868;52.544;13.416;2022-12-18T13:37:52;150.73;;;49.72;;
13595;SDS011;6868;52.544;13.416;2022-12-18T13:43:32;143.43;;;48.63;;
13595;SDS011;6868;52.544;13.416;2022-12-18T13:46:03;145.00;;;47.80;;
13595;SDS011;6868;52.544;13.416;2022-12-18T13:48:34;145.20;;;48.53;;
13595;SDS011;6868;52.544;13.416;2022-12-18T13:51:03;149.45;;;48.97;;
13595;SDS011;6868;52.544;13.416;2022-12-18T13:53:36;143.82;;;47.95;;
13595;SDS011;6868;52.544;13.416;2022-12-18T13:56:05;148.50;;;49.20;;
13595;SDS011;6868;52.544;13.416;2022-12-18T13:58:33;150.82;;;49.40;;
13595;SDS011;6868;52.544;13.416;2022-12-18T14:01:00;148.88;;;48.83;;
13595;SDS011;6868;52.544;13.416;2022-12-18T14:03:29;148.33;;;48.73;;
13595;SDS011;6868;52.544;13.416;2022-12-18T14:06:03;149.63;;;49.10;;
13595;SDS011;6868;52.544;13.416;2022-12-18T14:08:36;119.40;;;43.40;;
13595;SDS011;6868;52.544;13.416;2022-12-18T14:11:04;135.25;;;47.00;;
13595;SDS011;6868;52.544;13.416;2022-12-18T14:13:33;139.80;;;46.97;;
13595;SDS011;6868;52.544;13.416;2022-12-18T14:16:03;109.78;;;41.95;;
13595;SDS011;6868;52.544;13.416;2022-12-18T14:18:33;137.10;;;48.88;;
13595;SDS011;6868;52.544;13.416;2022-12-18T14:21:03;157.10;;;50.33;;
13595;SDS011;6868;52.544;13.416;2022-12-18T14:23:32;135.38;;;46.72;;
13595;SDS011;6868;52.544;13.416;2022-12-18T14:26:00;163.57;;;51.63;;
13595;SDS011;6868;52.544;13.416;2022-12-18T14:28:27;204.45;;;56.17;;
13595;SDS011;6868;52.544;13.416;2022-12-18T14:30:55;208.50;;;57.13;;
13595;SDS011;6868;52.544;13.416;2022-12-18T14:33:23;209.68;;;56.92;;
13595;SDS011;6868;52.544;13.416;2022-12-18T14:35:56;205.40;;;56.35;;
13595;SDS011;6868;52.544;13.416;2022-12-18T14:38:26;170.93;;;53.35;;
13595;SDS011;6868;52.544;13.416;2022-12-18T14:40:54;179.07;;;54.15;;
13595;SDS011;6868;52.544;13.416;2022-12-18T14:43:25;151.80;;;49.50;;
13595;SDS011;6868;52.544;13.416;2022-12-18T14:45:53;210.65;;;58.15;;
13595;SDS011;6868;52.544;13.416;2022-12-18T14:48:21;208.20;;;56.97;;